sensor_id;sensor_type;location;lat;lon;timestamp;pressure;altitude;pressure_sealevel;temperature;humidity
83557;BME280;73523;55.740;13.276;2024-01-11T00:00:30;102045.03;;;22.81;25.53
83557;BME280;73523;55.740;13.276;2024-01-11T00:02:55;102052.72;;;22.79;25.36
83557;BME280;73523;55.740;13.276;2024-01-11T00:05:21;102049.31;;;22.77;25.53
83557;BME280;73523;55.740;13.276;2024-01-11T00:07:46;102046.56;;;22.77;25.36
83557;BME280;73523;55.740;13.276;2024-01-11T00:10:12;102049.50;;;22.75;25.38
83557;BME280;73523;55.740;13.276;2024-01-11T00:12:37;102038.91;;;22.72;25.31
83557;BME280;73523;55.740;13.276;2024-01-11T00:15:03;102057.41;;;22.72;25.41
83557;BME280;73523;55.740;13.276;2024-01-11T00:17:28;102058.09;;;22.67;25.46
83557;BME280;73523;55.740;13.276;2024-01-11T00:19:53;102052.34;;;22.69;25.47
83557;BME280;73523;55.740;13.276;2024-01-11T00:22:19;102050.66;;;22.68;25.42
83557;BME280;73523;55.740;13.276;2024-01-11T00:24:44;102048.13;;;22.66;25.64
83557;BME280;73523;55.740;13.276;2024-01-11T00:27:09;102043.88;;;22.63;25.51
83557;BME280;73523;55.740;13.276;2024-01-11T00:29:35;102027.53;;;22.62;25.41
83557;BME280;73523;55.740;13.276;2024-01-11T00:32:01;102044.13;;;22.62;25.50
83557;BME280;73523;55.740;13.276;2024-01-11T00:34:26;102037.97;;;22.60;25.64
83557;BME280;73523;55.740;13.276;2024-01-11T00:36:51;102029.31;;;22.56;25.47
83557;BME280;73523;55.740;13.276;2024-01-11T00:39:17;102031.84;;;22.58;25.45
83557;BME280;73523;55.740;13.276;2024-01-11T00:41:42;102018.84;;;22.58;25.66
83557;BME280;73523;55.740;13.276;2024-01-11T00:44:07;102020.78;;;22.58;25.57
83557;BME280;73523;55.740;13.276;2024-01-11T00:46:34;102022.72;;;22.57;25.75
83557;BME280;73523;55.740;13.276;2024-01-11T00:48:59;102025.69;;;22.56;25.82
83557;BME280;73523;55.740;13.276;2024-01-11T00:51:25;102018.25;;;22.56;25.66
83557;BME280;73523;55.740;13.276;2024-01-11T00:53:50;102032.91;;;22.57;25.36
83557;BME280;73523;55.740;13.276;2024-01-11T00:56:18;102035.91;;;22.55;25.77
83557;BME280;73523;55.740;13.276;2024-01-11T00:58:44;102045.25;;;22.54;25.78
83557;BME280;73523;55.740;13.276;2024-01-11T01:01:10;102024.22;;;22.53;25.69
83557;BME280;73523;55.740;13.276;2024-01-11T01:03:35;102014.69;;;22.49;25.82
83557;BME280;73523;55.740;13.276;2024-01-11T01:06:01;102007.47;;;22.48;25.68
83557;BME280;73523;55.740;13.276;2024-01-11T01:08:27;102023.69;;;22.45;25.57
83557;BME280;73523;55.740;13.276;2024-01-11T01:10:52;102027.50;;;22.44;25.62
83557;BME280;73523;55.740;13.276;2024-01-11T01:13:18;102033.03;;;22.44;25.70
83557;BME280;73523;55.740;13.276;2024-01-11T01:15:43;102034.31;;;22.41;25.68
83557;BME280;73523;55.740;13.276;2024-01-11T01:18:08;102025.41;;;22.39;25.74
83557;BME280;73523;55.740;13.276;2024-01-11T01:20:34;102029.03;;;22.40;25.73
83557;BME280;73523;55.740;13.276;2024-01-11T01:22:59;102020.75;;;22.40;25.76
83557;BME280;73523;55.740;13.276;2024-01-11T01:25:24;102020.34;;;22.36;26.03
83557;BME280;73523;55.740;13.276;2024-01-11T01:27:50;102035.63;;;22.39;25.76
83557;BME280;73523;55.740;13.276;2024-01-11T01:30:15;102026.94;;;22.35;25.74
83557;BME280;73523;55.740;13.276;2024-01-11T01:32:41;102028.41;;;22.38;25.67
83557;BME280;73523;55.740;13.276;2024-01-11T01:35:06;102026.94;;;22.35;25.84
83557;BME280;73523;55.740;13.276;2024-01-11T01:37:32;102026.16;;;22.28;25.84
83557;BME280;73523;55.740;13.276;2024-01-11T01:39:58;102039.06;;;22.34;25.82
83557;BME280;73523;55.740;13.276;2024-01-11T01:42:23;102031.38;;;22.36;25.98
83557;BME280;73523;55.740;13.276;2024-01-11T01:44:48;102026.09;;;22.35;25.79
83557;BME280;73523;55.740;13.276;2024-01-11T01:47:14;102016.72;;;22.36;25.78
83557;BME280;73523;55.740;13.276;2024-01-11T01:49:40;102008.44;;;22.36;25.82
83557;BME280;73523;55.740;13.276;2024-01-11T01:52:07;102002.69;;;22.37;25.65
83557;BME280;73523;55.740;13.276;2024-01-11T01:54:33;101992.72;;;22.36;25.69
83557;BME280;73523;55.740;13.276;2024-01-11T01:56:59;101999.94;;;22.37;25.68
83557;BME280;73523;55.740;13.276;2024-01-11T01:59:26;101987.19;;;22.36;25.77
83557;BME280;73523;55.740;13.276;2024-01-11T02:01:52;101993.09;;;22.40;25.71
83557;BME280;73523;55.740;13.276;2024-01-11T02:04:18;101989.50;;;22.39;25.63
83557;BME280;73523;55.740;13.276;2024-01-11T02:06:45;101994.41;;;22.37;25.50
83557;BME280;73523;55.740;13.276;2024-01-11T02:09:11;102005.44;;;22.37;25.70
83557;BME280;73523;55.740;13.276;2024-01-11T02:11:38;102002.91;;;22.36;25.69
83557;BME280;73523;55.740;13.276;2024-01-11T02:14:04;102003.97;;;22.35;25.94
83557;BME280;73523;55.740;13.276;2024-01-11T02:16:29;102021.19;;;22.37;25.92
83557;BME280;73523;55.740;13.276;2024-01-11T02:18:55;102006.28;;;22.38;26.02
83557;BME280;73523;55.740;13.276;2024-01-11T02:21:22;101991.84;;;22.36;26.06
83557;BME280;73523;55.740;13.276;2024-01-11T02:26:23;102013.75;;;22.37;26.04
83557;BME280;73523;55.740;13.276;2024-01-11T02:28:49;102014.81;;;22.36;25.96
83557;BME280;73523;55.740;13.276;2024-01-11T02:31:14;102010.13;;;22.37;25.89
83557;BME280;73523;55.740;13.276;2024-01-11T02:33:40;101998.22;;;22.36;25.98
83557;BME280;73523;55.740;13.276;2024-01-11T02:36:06;101976.97;;;22.37;25.97
83557;BME280;73523;55.740;13.276;2024-01-11T02:38:33;101969.75;;;22.36;25.88
83557;BME280;73523;55.740;13.276;2024-01-11T02:41:00;101972.31;;;22.37;25.90
83557;BME280;73523;55.740;13.276;2024-01-11T02:43:25;101968.69;;;22.37;25.96
83557;BME280;73523;55.740;13.276;2024-01-11T02:45:54;101967.84;;;22.36;25.96
83557;BME280;73523;55.740;13.276;2024-01-11T02:48:20;101975.28;;;22.36;25.98
83557;BME280;73523;55.740;13.276;2024-01-11T02:50:46;101984.19;;;22.38;25.94
83557;BME280;73523;55.740;13.276;2024-01-11T02:53:12;101983.34;;;22.37;25.91
83557;BME280;73523;55.740;13.276;2024-01-11T02:55:37;101980.59;;;22.37;26.03
83557;BME280;73523;55.740;13.276;2024-01-11T02:58:03;101975.06;;;22.37;26.14
83557;BME280;73523;55.740;13.276;2024-01-11T03:00:28;101979.53;;;22.38;25.92
83557;BME280;73523;55.740;13.276;2024-01-11T03:02:53;101971.22;;;22.38;25.99
83557;BME280;73523;55.740;13.276;2024-01-11T03:05:18;101959.97;;;22.40;25.95
83557;BME280;73523;55.740;13.276;2024-01-11T03:07:44;101941.25;;;22.42;26.02
83557;BME280;73523;55.740;13.276;2024-01-11T03:10:09;101942.31;;;22.41;25.82
83557;BME280;73523;55.740;13.276;2024-01-11T03:12:35;101944.22;;;22.40;25.89
83557;BME280;73523;55.740;13.276;2024-01-11T03:15:00;101945.91;;;22.41;26.04
83557;BME280;73523;55.740;13.276;2024-01-11T03:17:25;101951.22;;;22.43;25.92
83557;BME280;73523;55.740;13.276;2024-01-11T03:19:50;101948.47;;;22.43;25.90
83557;BME280;73523;55.740;13.276;2024-01-11T03:22:16;101939.53;;;22.41;25.89
83557;BME280;73523;55.740;13.276;2024-01-11T03:24:41;101943.16;;;22.41;26.02
83557;BME280;73523;55.740;13.276;2024-01-11T03:27:06;101935.31;;;22.38;26.09
83557;BME280;73523;55.740;13.276;2024-01-11T03:29:32;101937.84;;;22.40;25.89
83557;BME280;73523;55.740;13.276;2024-01-11T03:31:57;101930.63;;;22.39;25.99
83557;BME280;73523;55.740;13.276;2024-01-11T03:34:22;101928.72;;;22.39;26.04
83557;BME280;73523;55.740;13.276;2024-01-11T03:36:48;101924.88;;;22.40;25.93
83557;BME280;73523;55.740;13.276;2024-01-11T03:39:13;101933.41;;;22.39;26.18
83557;BME280;73523;55.740;13.276;2024-01-11T03:41:43;101928.50;;;22.41;26.03
83557;BME280;73523;55.740;13.276;2024-01-11T03:44:09;101926.81;;;22.40;25.90
83557;BME280;73523;55.740;13.276;2024-01-11T03:46:34;101918.75;;;22.38;25.71
83557;BME280;73523;55.740;13.276;2024-01-11T03:48:59;101904.06;;;22.38;25.83
83557;BME280;73523;55.740;13.276;2024-01-11T03:51:25;101905.53;;;22.40;26.03
83557;BME280;73523;55.740;13.276;2024-01-11T03:53:50;101915.31;;;22.43;25.92
83557;BME280;73523;55.740;13.276;2024-01-11T03:56:15;101908.09;;;22.42;25.78
83557;BME280;73523;55.740;13.276;2024-01-11T03:58:41;101918.91;;;22.43;25.80
83557;BME280;73523;55.740;13.276;2024-01-11T04:01:09;101933.34;;;22.45;25.97
83557;BME280;73523;55.740;13.276;2024-01-11T04:03:35;101933.34;;;22.45;25.93
83557;BME280;73523;55.740;13.276;2024-01-11T04:06:01;101925.91;;;22.46;25.88
83557;BME280;73523;55.740;13.276;2024-01-11T04:08:26;101914.59;;;22.47;25.84
83557;BME280;73523;55.740;13.276;2024-01-11T04:10:51;101912.91;;;22.46;25.99
83557;BME280;73523;55.740;13.276;2024-01-11T04:13:17;101902.47;;;22.48;25.84
83557;BME280;73523;55.740;13.276;2024-01-11T04:15:42;101898.28;;;22.46;26.00
83557;BME280;73523;55.740;13.276;2024-01-11T04:18:07;101913.53;;;22.48;25.77
83557;BME280;73523;55.740;13.276;2024-01-11T04:20:33;101908.84;;;22.49;25.82
83557;BME280;73523;55.740;13.276;2024-01-11T04:22:59;101893.09;;;22.49;25.90
83557;BME280;73523;55.740;13.276;2024-01-11T04:25:24;101901.63;;;22.48;25.76
83557;BME280;73523;55.740;13.276;2024-01-11T04:27:49;101907.38;;;22.46;25.86
83557;BME280;73523;55.740;13.276;2024-01-11T04:30:15;101915.66;;;22.46;25.77
83557;BME280;73523;55.740;13.276;2024-01-11T04:32:40;101899.94;;;22.47;25.83
83557;BME280;73523;55.740;13.276;2024-01-11T04:35:06;101889.97;;;22.46;25.89
83557;BME280;73523;55.740;13.276;2024-01-11T04:37:31;101888.28;;;22.45;25.85
83557;BME280;73523;55.740;13.276;2024-01-11T04:39:57;101901.63;;;22.48;25.92
83557;BME280;73523;55.740;13.276;2024-01-11T04:42:26;101906.56;;;22.46;25.93
83557;BME280;73523;55.740;13.276;2024-01-11T04:44:52;101898.72;;;22.43;25.93
83557;BME280;73523;55.740;13.276;2024-01-11T04:47:17;101891.06;;;22.45;25.84
83557;BME280;73523;55.740;13.276;2024-01-11T04:49:42;101884.69;;;22.44;25.81
83557;BME280;73523;55.740;13.276;2024-01-11T04:52:08;101893.81;;;22.45;25.93
83557;BME280;73523;55.740;13.276;2024-01-11T04:54:33;101888.75;;;22.42;26.09
83557;BME280;73523;55.740;13.276;2024-01-11T04:56:59;101894.41;;;22.47;26.08
83557;BME280;73523;55.740;13.276;2024-01-11T04:59:24;101899.47;;;22.50;25.98
83557;BME280;73523;55.740;13.276;2024-01-11T05:01:49;101901.63;;;22.48;26.36
83557;BME280;73523;55.740;13.276;2024-01-11T05:04:15;101905.47;;;22.47;26.47
83557;BME280;73523;55.740;13.276;2024-01-11T05:06:40;101897.16;;;22.47;26.55
83557;BME280;73523;55.740;13.276;2024-01-11T05:09:05;101903.31;;;22.49;26.26
83557;BME280;73523;55.740;13.276;2024-01-11T05:11:31;101916.06;;;22.50;26.31
83557;BME280;73523;55.740;13.276;2024-01-11T05:13:56;101910.69;;;22.55;26.36
83557;BME280;73523;55.740;13.276;2024-01-11T05:16:31;101921.53;;;22.56;25.96
83557;BME280;73523;55.740;13.276;2024-01-11T05:18:57;101914.94;;;22.57;26.26
83557;BME280;73523;55.740;13.276;2024-01-11T05:21:23;101912.75;;;22.59;26.28
83557;BME280;73523;55.740;13.276;2024-01-11T05:23:49;101898.94;;;22.59;26.14
83557;BME280;73523;55.740;13.276;2024-01-11T05:26:15;101898.94;;;22.59;26.24
83557;BME280;73523;55.740;13.276;2024-01-11T05:28:41;101897.88;;;22.60;26.35
83557;BME280;73523;55.740;13.276;2024-01-11T05:31:11;101894.03;;;22.61;26.32
83557;BME280;73523;55.740;13.276;2024-01-11T05:33:37;101893.81;;;22.63;26.24
83557;BME280;73523;55.740;13.276;2024-01-11T05:36:03;101875.28;;;22.63;26.33
83557;BME280;73523;55.740;13.276;2024-01-11T05:38:28;101881.66;;;22.64;26.33
83557;BME280;73523;55.740;13.276;2024-01-11T05:40:53;101889.34;;;22.62;26.38
83557;BME280;73523;55.740;13.276;2024-01-11T05:43:19;101896.56;;;22.63;26.24
83557;BME280;73523;55.740;13.276;2024-01-11T05:45:44;101906.53;;;22.64;26.19
83557;BME280;73523;55.740;13.276;2024-01-11T05:48:10;101908.22;;;22.65;26.46
83557;BME280;73523;55.740;13.276;2024-01-11T05:50:36;101913.75;;;22.65;26.31
83557;BME280;73523;55.740;13.276;2024-01-11T05:53:01;101908.47;;;22.63;26.35
83557;BME280;73523;55.740;13.276;2024-01-11T05:55:27;101909.09;;;22.66;26.40
83557;BME280;73523;55.740;13.276;2024-01-11T05:57:52;101921.84;;;22.67;26.30
83557;BME280;73523;55.740;13.276;2024-01-11T06:00:18;101916.53;;;22.65;26.11
83557;BME280;73523;55.740;13.276;2024-01-11T06:02:43;101916.31;;;22.67;26.25
83557;BME280;73523;55.740;13.276;2024-01-11T06:05:08;101919.91;;;22.67;26.14
83557;BME280;73523;55.740;13.276;2024-01-11T06:07:35;101916.31;;;22.67;26.03
83557;BME280;73523;55.740;13.276;2024-01-11T06:10:01;101916.31;;;22.67;25.94
83557;BME280;73523;55.740;13.276;2024-01-11T06:12:30;101913.75;;;22.65;26.26
83557;BME280;73523;55.740;13.276;2024-01-11T06:14:56;101912.06;;;22.64;26.15
83557;BME280;73523;55.740;13.276;2024-01-11T06:17:21;101913.53;;;22.67;26.33
83557;BME280;73523;55.740;13.276;2024-01-11T06:19:46;101912.47;;;22.68;26.16
83557;BME280;73523;55.740;13.276;2024-01-11T06:22:12;101903.09;;;22.69;25.90
83557;BME280;73523;55.740;13.276;2024-01-11T06:24:37;101902.25;;;22.68;25.93
83557;BME280;73523;55.740;13.276;2024-01-11T06:27:03;101908.41;;;22.70;26.31
83557;BME280;73523;55.740;13.276;2024-01-11T06:29:28;101898.16;;;22.71;25.98
83557;BME280;73523;55.740;13.276;2024-01-11T06:31:53;101911.16;;;22.70;25.92
83557;BME280;73523;55.740;13.276;2024-01-11T06:34:19;101888.22;;;22.70;25.78
83557;BME280;73523;55.740;13.276;2024-01-11T06:36:44;101891.56;;;22.72;26.06
83557;BME280;73523;55.740;13.276;2024-01-11T06:39:09;101897.34;;;22.70;25.89
83557;BME280;73523;55.740;13.276;2024-01-11T06:41:35;101896.25;;;22.71;25.99
83557;BME280;73523;55.740;13.276;2024-01-11T06:44:00;101889.06;;;22.70;25.92
83557;BME280;73523;55.740;13.276;2024-01-11T06:46:25;101904.53;;;22.71;26.01
83557;BME280;73523;55.740;13.276;2024-01-11T06:48:51;101905.63;;;22.70;25.93
83557;BME280;73523;55.740;13.276;2024-01-11T06:51:20;101892.03;;;22.69;25.87
83557;BME280;73523;55.740;13.276;2024-01-11T06:53:46;101890.59;;;22.66;25.78
83557;BME280;73523;55.740;13.276;2024-01-11T06:56:17;101882.28;;;22.66;25.97
83557;BME280;73523;55.740;13.276;2024-01-11T06:58:43;101880.59;;;22.65;26.10
83557;BME280;73523;55.740;13.276;2024-01-11T07:01:08;101886.34;;;22.63;25.97
83557;BME280;73523;55.740;13.276;2024-01-11T07:03:33;101891.88;;;22.63;26.16
83557;BME280;73523;55.740;13.276;2024-01-11T07:05:59;101893.56;;;22.64;26.30
83557;BME280;73523;55.740;13.276;2024-01-11T07:08:24;101904.63;;;22.64;25.86
83557;BME280;73523;55.740;13.276;2024-01-11T07:10:50;101907.16;;;22.66;25.99
83557;BME280;73523;55.740;13.276;2024-01-11T07:13:15;101902.47;;;22.67;25.88
83557;BME280;73523;55.740;13.276;2024-01-11T07:15:42;101906.09;;;22.67;25.70
83557;BME280;73523;55.740;13.276;2024-01-11T07:18:08;101912.25;;;22.69;25.75
83557;BME280;73523;55.740;13.276;2024-01-11T07:20:33;101910.91;;;22.72;25.97
83557;BME280;73523;55.740;13.276;2024-01-11T07:22:59;101899.84;;;22.72;25.92
83557;BME280;73523;55.740;13.276;2024-01-11T07:25:24;101912.59;;;22.73;25.62
83557;BME280;73523;55.740;13.276;2024-01-11T07:27:50;101911.75;;;22.72;25.90
83557;BME280;73523;55.740;13.276;2024-01-11T07:30:15;101909.59;;;22.74;25.63
83557;BME280;73523;55.740;13.276;2024-01-11T07:32:41;101914.28;;;22.74;25.67
83557;BME280;73523;55.740;13.276;2024-01-11T07:35:06;101917.91;;;22.74;25.47
83557;BME280;73523;55.740;13.276;2024-01-11T07:37:32;101931.94;;;22.73;25.53
83557;BME280;73523;55.740;13.276;2024-01-11T07:39:57;101933.88;;;22.72;25.42
83557;BME280;73523;55.740;13.276;2024-01-11T07:42:22;101930.25;;;22.72;25.45
83557;BME280;73523;55.740;13.276;2024-01-11T07:44:48;101914.50;;;22.72;25.58
83557;BME280;73523;55.740;13.276;2024-01-11T07:47:13;101915.34;;;22.73;25.72
83557;BME280;73523;55.740;13.276;2024-01-11T07:49:39;101915.59;;;22.71;25.68
83557;BME280;73523;55.740;13.276;2024-01-11T07:52:05;101921.38;;;22.70;25.69
83557;BME280;73523;55.740;13.276;2024-01-11T07:54:30;101920.53;;;22.69;25.78
83557;BME280;73523;55.740;13.276;2024-01-11T07:56:56;101912.25;;;22.69;25.82
83557;BME280;73523;55.740;13.276;2024-01-11T07:59:21;101904.41;;;22.66;25.72
83557;BME280;73523;55.740;13.276;2024-01-11T08:01:47;101902.47;;;22.67;25.78
83557;BME280;73523;55.740;13.276;2024-01-11T08:04:13;101908.84;;;22.67;25.64
83557;BME280;73523;55.740;13.276;2024-01-11T08:06:39;101904.63;;;22.64;25.89
83557;BME280;73523;55.740;13.276;2024-01-11T08:09:04;101904.41;;;22.66;25.59
83557;BME280;73523;55.740;13.276;2024-01-11T08:11:30;101910.78;;;22.67;25.76
83557;BME280;73523;55.740;13.276;2024-01-11T08:13:56;101917.16;;;22.67;25.89
83557;BME280;73523;55.740;13.276;2024-01-11T08:16:21;101916.31;;;22.67;25.91
83557;BME280;73523;55.740;13.276;2024-01-11T08:18:47;101931.81;;;22.68;25.71
83557;BME280;73523;55.740;13.276;2024-01-11T08:21:14;101918.00;;;22.68;25.76
83557;BME280;73523;55.740;13.276;2024-01-11T08:23:41;101926.50;;;22.66;25.59
83557;BME280;73523;55.740;13.276;2024-01-11T08:26:16;101929.28;;;22.66;25.74
83557;BME280;73523;55.740;13.276;2024-01-11T08:28:44;101931.19;;;22.66;25.72
83557;BME280;73523;55.740;13.276;2024-01-11T08:31:09;101938.19;;;22.68;25.61
83557;BME280;73523;55.740;13.276;2024-01-11T08:33:35;101931.81;;;22.68;26.10
83557;BME280;73523;55.740;13.276;2024-01-11T08:36:03;101927.34;;;22.67;25.95
83557;BME280;73523;55.740;13.276;2024-01-11T08:38:29;101926.66;;;22.71;25.90
83557;BME280;73523;55.740;13.276;2024-01-11T08:40:54;101925.56;;;22.72;26.02
83557;BME280;73523;55.740;13.276;2024-01-11T08:43:20;101919.19;;;22.72;25.68
83557;BME280;73523;55.740;13.276;2024-01-11T08:45:45;101924.28;;;22.75;25.93
83557;BME280;73523;55.740;13.276;2024-01-11T08:48:12;101932.16;;;22.78;25.82
83557;BME280;73523;55.740;13.276;2024-01-11T08:50:38;101939.97;;;22.81;25.57
83557;BME280;73523;55.740;13.276;2024-01-11T08:53:04;101938.28;;;22.80;25.71
83557;BME280;73523;55.740;13.276;2024-01-11T08:55:29;101933.59;;;22.80;25.88
83557;BME280;73523;55.740;13.276;2024-01-11T08:57:54;101940.81;;;22.81;25.73
83557;BME280;73523;55.740;13.276;2024-01-11T09:00:20;101940.81;;;22.81;25.81
83557;BME280;73523;55.740;13.276;2024-01-11T09:02:45;101946.09;;;22.83;25.70
83557;BME280;73523;55.740;13.276;2024-01-11T09:05:13;101953.94;;;22.86;25.64
83557;BME280;73523;55.740;13.276;2024-01-11T09:07:39;101954.78;;;22.86;25.80
83557;BME280;73523;55.740;13.276;2024-01-11T09:10:05;101964.53;;;22.89;25.52
83557;BME280;73523;55.740;13.276;2024-01-11T09:12:30;101959.84;;;22.89;25.72
83557;BME280;73523;55.740;13.276;2024-01-11T09:14:56;101967.94;;;22.91;25.63
83557;BME280;73523;55.740;13.276;2024-01-11T09:17:21;101970.47;;;22.92;25.55
83557;BME280;73523;55.740;13.276;2024-01-11T09:19:46;101974.91;;;22.93;25.77
83557;BME280;73523;55.740;13.276;2024-01-11T09:22:12;101963.88;;;22.93;25.60
83557;BME280;73523;55.740;13.276;2024-01-11T09:24:37;101961.94;;;22.94;25.64
83557;BME280;73523;55.740;13.276;2024-01-11T09:27:02;101960.59;;;22.96;25.52
83557;BME280;73523;55.740;13.276;2024-01-11T09:29:29;101963.38;;;22.96;25.55
83557;BME280;73523;55.740;13.276;2024-01-11T09:31:54;101957.63;;;22.98;25.38
83557;BME280;73523;55.740;13.276;2024-01-11T09:34:20;101956.53;;;22.99;25.57
83557;BME280;73523;55.740;13.276;2024-01-11T09:36:45;101964.00;;;22.98;25.53
83557;BME280;73523;55.740;13.276;2024-01-11T09:39:10;101966.31;;;23.02;25.52
83557;BME280;73523;55.740;13.276;2024-01-11T09:41:41;101971.84;;;23.02;25.40
83557;BME280;73523;55.740;13.276;2024-01-11T09:44:08;101970.53;;;23.04;25.48
83557;BME280;73523;55.740;13.276;2024-01-11T09:46:34;101969.47;;;23.05;25.42
83557;BME280;73523;55.740;13.276;2024-01-11T09:49:02;101960.53;;;23.03;25.35
83557;BME280;73523;55.740;13.276;2024-01-11T09:51:29;101952.03;;;23.05;25.63
83557;BME280;73523;55.740;13.276;2024-01-11T09:53:55;101946.25;;;23.06;25.71
83557;BME280;73523;55.740;13.276;2024-01-11T09:56:21;101944.91;;;23.09;25.60
83557;BME280;73523;55.740;13.276;2024-01-11T09:58:47;101950.44;;;23.09;25.36
83557;BME280;73523;55.740;13.276;2024-01-11T10:01:16;101962.97;;;23.11;25.60
83557;BME280;73523;55.740;13.276;2024-01-11T10:03:42;101958.28;;;23.12;25.38
83557;BME280;73523;55.740;13.276;2024-01-11T10:06:08;101958.53;;;23.10;25.68
83557;BME280;73523;55.740;13.276;2024-01-11T10:08:34;101975.72;;;23.12;25.46
83557;BME280;73523;55.740;13.276;2024-01-11T10:11:00;101977.44;;;23.13;25.64
83557;BME280;73523;55.740;13.276;2024-01-11T10:13:32;101968.28;;;23.13;25.40
83557;BME280;73523;55.740;13.276;2024-01-11T10:16:09;101966.38;;;23.13;25.47
83557;BME280;73523;55.740;13.276;2024-01-11T10:18:41;101962.53;;;23.14;25.52
83557;BME280;73523;55.740;13.276;2024-01-11T10:21:07;101961.69;;;23.14;25.61
83557;BME280;73523;55.740;13.276;2024-01-11T10:23:35;101966.97;;;23.15;25.55
83557;BME280;73523;55.740;13.276;2024-01-11T10:26:00;101960.38;;;23.16;25.53
83557;BME280;73523;55.740;13.276;2024-01-11T10:28:26;101962.28;;;23.16;25.59
83557;BME280;73523;55.740;13.276;2024-01-11T10:30:52;101957.38;;;23.18;25.62
83557;BME280;73523;55.740;13.276;2024-01-11T10:33:21;101972.06;;;23.18;25.46
83557;BME280;73523;55.740;13.276;2024-01-11T10:35:49;101980.94;;;23.20;25.52
83557;BME280;73523;55.740;13.276;2024-01-11T10:38:15;101968.19;;;23.19;25.74
83557;BME280;73523;55.740;13.276;2024-01-11T10:40:42;101969.41;;;23.23;25.50
83557;BME280;73523;55.740;13.276;2024-01-11T10:43:09;101971.72;;;23.26;25.53
83557;BME280;73523;55.740;13.276;2024-01-11T10:45:38;101966.56;;;23.30;25.56
83557;BME280;73523;55.740;13.276;2024-01-11T10:48:13;101966.31;;;23.31;25.37
83557;BME280;73523;55.740;13.276;2024-01-11T10:50:42;101956.94;;;23.32;25.58
83557;BME280;73523;55.740;13.276;2024-01-11T10:55:53;101956.69;;;23.34;25.34
83557;BME280;73523;55.740;13.276;2024-01-11T10:58:21;101965.38;;;23.38;25.53
83557;BME280;73523;55.740;13.276;2024-01-11T11:00:48;101961.53;;;23.39;25.37
83557;BME280;73523;55.740;13.276;2024-01-11T11:03:15;101964.31;;;23.39;25.42
83557;BME280;73523;55.740;13.276;2024-01-11T11:05:42;101968.53;;;23.41;25.44
83557;BME280;73523;55.740;13.276;2024-01-11T11:08:09;101958.31;;;23.42;25.49
83557;BME280;73523;55.740;13.276;2024-01-11T11:10:36;101951.09;;;23.41;25.52
83557;BME280;73523;55.740;13.276;2024-01-11T11:13:05;101951.31;;;23.39;25.83
83557;BME280;73523;55.740;13.276;2024-01-11T11:15:31;101964.09;;;23.40;25.73
83557;BME280;73523;55.740;13.276;2024-01-11T11:17:57;101961.09;;;23.42;25.50
83557;BME280;73523;55.740;13.276;2024-01-11T11:20:23;101960.25;;;23.41;25.81
83557;BME280;73523;55.740;13.276;2024-01-11T11:23:03;101960.47;;;23.40;25.76
83557;BME280;73523;55.740;13.276;2024-01-11T11:25:30;101968.03;;;23.44;25.73
83557;BME280;73523;55.740;13.276;2024-01-11T11:27:55;101971.88;;;23.43;25.43
83557;BME280;73523;55.740;13.276;2024-01-11T11:30:21;101966.97;;;23.45;25.58
83557;BME280;73523;55.740;13.276;2024-01-11T11:32:46;101964.22;;;23.45;25.42
83557;BME280;73523;55.740;13.276;2024-01-11T11:35:12;101965.91;;;23.46;25.65
83557;BME280;73523;55.740;13.276;2024-01-11T11:37:38;101965.91;;;23.46;25.59
83557;BME280;73523;55.740;13.276;2024-01-11T11:40:05;101971.44;;;23.46;25.51
83557;BME280;73523;55.740;13.276;2024-01-11T11:42:31;101971.19;;;23.48;25.58
83557;BME280;73523;55.740;13.276;2024-01-11T11:44:56;101965.91;;;23.46;25.43
83557;BME280;73523;55.740;13.276;2024-01-11T11:47:23;101966.97;;;23.45;25.35
83557;BME280;73523;55.740;13.276;2024-01-11T11:52:39;101970.13;;;23.49;25.45
83557;BME280;73523;55.740;13.276;2024-01-11T11:55:07;101969.69;;;23.52;25.40
83557;BME280;73523;55.740;13.276;2024-01-11T11:57:34;101975.66;;;23.49;25.77
83557;BME280;73523;55.740;13.276;2024-01-11T11:59:59;101966.69;;;23.53;25.37
83557;BME280;73523;55.740;13.276;2024-01-11T12:02:26;101966.44;;;23.55;25.69
83557;BME280;73523;55.740;13.276;2024-01-11T12:04:52;101964.50;;;23.55;25.34
83557;BME280;73523;55.740;13.276;2024-01-11T12:07:19;101971.72;;;23.56;25.60
83557;BME280;73523;55.740;13.276;2024-01-11T12:09:46;101975.34;;;23.57;25.66
83557;BME280;73523;55.740;13.276;2024-01-11T12:12:12;101968.50;;;23.59;25.44
83557;BME280;73523;55.740;13.276;2024-01-11T12:14:37;101954.91;;;23.58;25.53
83557;BME280;73523;55.740;13.276;2024-01-11T12:17:03;101957.06;;;23.56;25.60
83557;BME280;73523;55.740;13.276;2024-01-11T12:19:29;101962.13;;;23.59;25.54
83557;BME280;73523;55.740;13.276;2024-01-11T12:21:54;101954.91;;;23.58;25.69
83557;BME280;73523;55.740;13.276;2024-01-11T12:24:20;101962.97;;;23.59;25.57
83557;BME280;73523;55.740;13.276;2024-01-11T12:26:49;101966.56;;;23.60;25.82
83557;BME280;73523;55.740;13.276;2024-01-11T12:29:17;101967.44;;;23.60;25.84
83557;BME280;73523;55.740;13.276;2024-01-11T12:31:43;101966.13;;;23.63;25.79
83557;BME280;73523;55.740;13.276;2024-01-11T12:34:09;101957.81;;;23.63;25.66
83557;BME280;73523;55.740;13.276;2024-01-11T12:36:36;101961.19;;;23.65;25.66
83557;BME280;73523;55.740;13.276;2024-01-11T12:39:02;101959.00;;;23.67;25.40
83557;BME280;73523;55.740;13.276;2024-01-11T12:41:29;101956.50;;;23.65;25.49